createdAt,value
2023-04-15T00:01:51.920Z,99457.09
2023-04-15T00:04:18.491Z,99451.50
2023-04-15T00:06:50.406Z,99441.88
2023-04-15T00:09:16.768Z,99440.94
2023-04-15T00:11:43.202Z,99442.75
2023-04-15T00:14:09.661Z,99443.50
2023-04-15T00:16:36.124Z,99438.25
2023-04-15T00:19:03.830Z,99447.03
2023-04-15T00:21:30.529Z,99435.56
2023-04-15T00:23:56.904Z,99432.13
2023-04-15T00:26:23.403Z,99433.94
2023-04-15T00:28:49.923Z,99428.47
2023-04-15T00:31:22.328Z,99429.38
2023-04-15T00:33:48.835Z,99426.69
2023-04-15T00:36:18.015Z,99416.94
2023-04-15T00:38:44.426Z,99430.34
2023-04-15T00:41:11.505Z,99425.88
2023-04-15T00:43:37.889Z,99428.53
2023-04-15T00:46:04.642Z,99419.66
2023-04-15T00:48:31.503Z,99418.66
2023-04-15T00:50:58.141Z,99418.66
2023-04-15T00:53:25.918Z,99414.34
2023-04-15T00:55:52.831Z,99414.47
2023-04-15T00:58:20.299Z,99404.59
2023-04-15T01:00:47.171Z,99407.28
2023-04-15T01:03:13.885Z,99407.28
2023-04-15T01:05:40.352Z,99409.84
2023-04-15T01:08:06.889Z,99400.09
2023-04-15T01:10:35.010Z,99402.84
2023-04-15T01:13:02.927Z,99400.25
2023-04-15T01:15:29.411Z,99404.50
2023-04-15T01:17:57.192Z,99396.44
2023-04-15T01:20:23.816Z,99399.19
2023-04-15T01:22:50.623Z,99396.44
2023-04-15T01:25:19.058Z,99391.13
2023-04-15T01:27:46.905Z,99392.84
2023-04-15T01:30:13.375Z,99392.78
2023-04-15T01:32:39.885Z,99385.66
2023-04-15T01:35:06.799Z,99387.53
2023-04-15T01:37:33.662Z,99384.91
2023-04-15T01:40:00.103Z,99393.84
2023-04-15T01:42:27.153Z,99387.63
2023-04-15T01:44:54.927Z,99379.66
2023-04-15T01:47:21.357Z,99375.19
2023-04-15T01:49:47.850Z,99375.09
2023-04-15T01:52:14.235Z,99369.81
2023-04-15T01:54:40.689Z,99378.84
2023-04-15T01:57:07.087Z,99370.84
2023-04-15T01:59:34.321Z,99368.09
2023-04-15T02:02:02.076Z,99379.59
2023-04-15T02:04:28.652Z,99366.28
2023-04-15T02:06:57.438Z,99369.94
2023-04-15T02:09:23.865Z,99366.38
2023-04-15T02:11:50.760Z,99364.78
2023-04-15T02:14:17.796Z,99366.78
2023-04-15T02:16:44.252Z,99363.03
2023-04-15T02:19:12.002Z,99350.50
2023-04-15T02:21:38.399Z,99360.22
2023-04-15T02:24:05.073Z,99361.19
2023-04-15T02:26:32.400Z,99349.69
2023-04-15T02:28:59.188Z,99354.97
2023-04-15T02:31:26.222Z,99354.16
2023-04-15T02:33:52.781Z,99355.00
2023-04-15T02:36:20.672Z,99351.44
2023-04-15T02:38:47.120Z,99346.88
2023-04-15T02:41:15.069Z,99332.53
2023-04-15T02:43:43.736Z,99334.28
2023-04-15T02:46:10.204Z,99337.88
2023-04-15T02:48:37.955Z,99330.75
2023-04-15T02:51:14.933Z,99325.09
2023-04-15T02:53:42.968Z,99344.13
2023-04-15T02:56:09.711Z,99330.75
2023-04-15T02:58:36.205Z,99337.09
2023-04-15T03:01:02.832Z,99332.59
2023-04-15T03:03:29.371Z,99328.19
2023-04-15T03:05:56.113Z,99335.31
2023-04-15T03:08:22.571Z,99340.91
2023-04-15T03:10:50.610Z,99343.47
2023-04-15T03:13:17.265Z,99330.91
2023-04-15T03:15:43.849Z,99333.47
2023-04-15T03:18:10.423Z,99335.31
2023-04-15T03:20:36.870Z,99336.13
2023-04-15T03:23:03.313Z,99333.53
2023-04-15T03:25:29.701Z,99323.59
2023-04-15T03:27:57.405Z,99326.34
2023-04-15T03:30:24.041Z,99332.59
2023-04-15T03:32:50.820Z,99338.09
2023-04-15T03:35:17.505Z,99339.72
2023-04-15T03:37:43.977Z,99340.78
2023-04-15T03:40:11.181Z,99334.56
2023-04-15T03:42:37.680Z,99326.72
2023-04-15T03:45:06.943Z,99337.19
2023-04-15T03:47:33.410Z,99336.34
2023-04-15T03:49:59.862Z,99332.81
2023-04-15T03:52:26.293Z,99336.22
2023-04-15T03:54:52.730Z,99332.69
2023-04-15T03:57:19.112Z,99338.09
2023-04-15T03:59:45.493Z,99335.38
2023-04-15T04:02:13.285Z,99335.31
2023-04-15T04:04:39.780Z,99334.56
2023-04-15T04:07:06.258Z,99337.41
2023-04-15T04:09:32.666Z,99331.06
2023-04-15T04:11:59.078Z,99332.81
2023-04-15T04:14:25.484Z,99334.56
2023-04-15T04:16:51.941Z,99325.56
2023-04-15T04:19:19.681Z,99315.72
2023-04-15T04:21:46.150Z,99324.56
2023-04-15T04:24:12.585Z,99326.44
2023-04-15T04:26:39.057Z,99327.22
2023-04-15T04:29:05.463Z,99324.56
2023-04-15T04:31:31.944Z,99336.28
2023-04-15T04:33:58.335Z,99320.19
2023-04-15T04:36:26.088Z,99336.34
2023-04-15T04:38:52.466Z,99324.63
2023-04-15T04:41:18.808Z,99331.72
2023-04-15T04:43:45.208Z,99330.75
2023-04-15T04:46:11.626Z,99320.06
2023-04-15T04:48:38.119Z,99330.84
2023-04-15T04:51:04.709Z,99326.41
2023-04-15T04:53:32.513Z,99324.53
2023-04-15T04:55:58.893Z,99316.56
2023-04-15T04:58:25.673Z,99321.84
2023-04-15T05:00:52.141Z,99329.91
2023-04-15T05:03:18.892Z,99328.97
2023-04-15T05:05:45.585Z,99333.38
2023-04-15T05:08:11.976Z,99339.66
2023-04-15T05:10:39.898Z,99332.47
2023-04-15T05:13:06.459Z,99335.09
2023-04-15T05:15:32.920Z,99336.00
2023-04-15T05:17:59.330Z,99330.75
2023-04-15T05:20:25.813Z,99321.50
2023-04-15T05:22:52.182Z,99321.56
2023-04-15T05:25:18.575Z,99309.06
2023-04-15T05:27:46.338Z,99318.78
2023-04-15T05:30:13.752Z,99319.63
2023-04-15T05:32:40.407Z,99314.34
2023-04-15T05:35:07.453Z,99329.41
2023-04-15T05:37:33.872Z,99324.06
2023-04-15T05:40:00.311Z,99325.81
2023-04-15T05:42:26.747Z,99332.09
2023-04-15T05:44:54.498Z,99332.13
2023-04-15T05:47:20.915Z,99327.41
2023-04-15T05:49:47.311Z,99330.03
2023-04-15T05:52:13.717Z,99327.28
2023-04-15T05:54:40.111Z,99329.13
2023-04-15T05:57:06.519Z,99331.81
2023-04-15T05:59:32.912Z,99326.41
2023-04-15T06:02:00.768Z,99329.13
2023-04-15T06:04:27.617Z,99327.19
2023-04-15T06:06:54.086Z,99319.16
2023-04-15T06:09:20.468Z,99311.91
2023-04-15T06:11:47.207Z,99322.53
2023-04-15T06:14:13.581Z,99317.16
2023-04-15T06:16:40.122Z,99317.88
2023-04-15T06:19:07.951Z,99313.41
2023-04-15T06:21:34.450Z,99315.94
2023-04-15T06:24:00.853Z,99322.22
2023-04-15T06:26:27.279Z,99316.75
2023-04-15T06:28:53.806Z,99325.84
2023-04-15T06:31:20.291Z,99326.72
2023-04-15T06:33:46.674Z,99324.94
2023-04-15T06:36:14.503Z,99324.94
2023-04-15T06:38:40.830Z,99333.81
2023-04-15T06:41:07.307Z,99328.59
2023-04-15T06:43:33.731Z,99321.25
2023-04-15T06:46:00.200Z,99314.00
2023-04-15T06:48:26.698Z,99320.34
2023-04-15T06:50:53.160Z,99320.28
2023-04-15T06:53:20.895Z,99325.47
2023-04-15T06:55:47.327Z,99327.09
2023-04-15T06:58:18.058Z,99329.63
2023-04-15T07:00:49.397Z,99332.41
2023-04-15T07:03:18.988Z,99330.63
2023-04-15T07:05:50.644Z,99327.25
2023-04-15T07:08:23.215Z,99321.84
2023-04-15T07:10:50.022Z,99319.84
2023-04-15T07:13:19.656Z,99323.66
2023-04-15T07:15:49.352Z,99336.91
2023-04-15T07:18:18.617Z,99323.72
2023-04-15T07:20:48.778Z,99332.41
2023-04-15T07:23:22.822Z,99339.66
2023-04-15T07:25:49.436Z,99329.06
2023-04-15T07:28:22.199Z,99336.13
2023-04-15T07:30:49.158Z,99343.25
2023-04-15T07:33:21.715Z,99328.97
2023-04-15T07:35:48.397Z,99321.72
2023-04-15T07:38:17.181Z,99353.34
2023-04-15T07:40:49.466Z,99343.56
2023-04-15T07:43:22.118Z,99349.72
2023-04-15T07:45:48.598Z,99329.47
2023-04-15T07:48:21.476Z,99327.63
2023-04-15T07:50:50.102Z,99351.09
2023-04-15T07:53:19.417Z,99340.31
2023-04-15T07:55:56.702Z,99358.91
2023-04-15T07:58:23.483Z,99337.81
2023-04-15T08:00:50.174Z,99356.91
2023-04-15T08:03:18.921Z,99353.56
2023-04-15T08:05:49.598Z,99358.72
2023-04-15T08:08:22.303Z,99338.56
2023-04-15T08:10:51.404Z,99361.31
2023-04-15T08:13:20.421Z,99370.31
2023-04-15T08:15:53.988Z,99368.56
2023-04-15T08:18:20.468Z,99370.44
2023-04-15T08:20:52.474Z,99361.41
2023-04-15T08:23:19.208Z,99364.00
2023-04-15T08:25:49.055Z,99349.13
2023-04-15T08:28:18.184Z,99358.72
2023-04-15T08:30:52.651Z,99362.28
2023-04-15T08:33:19.292Z,99375.47
2023-04-15T08:35:51.763Z,99384.25
2023-04-15T08:38:18.590Z,99368.34
2023-04-15T08:40:48.310Z,99383.00
2023-04-15T08:43:22.654Z,99377.81
2023-04-15T08:45:52.449Z,99369.97
2023-04-15T08:48:19.580Z,99395.41
2023-04-15T08:50:47.019Z,99394.41
2023-04-15T08:53:19.377Z,99395.25
2023-04-15T08:55:51.175Z,99397.75
2023-04-15T08:58:20.794Z,99385.34
2023-04-15T09:00:47.444Z,99396.63
2023-04-15T09:03:17.381Z,99390.41
2023-04-15T09:05:46.455Z,99403.44
2023-04-15T09:08:13.025Z,99401.53
2023-04-15T09:10:39.668Z,99409.38
2023-04-15T09:13:06.483Z,99403.97
2023-04-15T09:15:33.241Z,99411.84
2023-04-15T09:17:59.691Z,99400.94
2023-04-15T09:20:27.510Z,99396.41
2023-04-15T09:22:56.865Z,99404.31
2023-04-15T09:25:28.365Z,99405.13
2023-04-15T09:27:56.563Z,99417.63
2023-04-15T09:30:23.517Z,99415.75
2023-04-15T09:32:51.254Z,99392.03
2023-04-15T09:35:20.440Z,99399.94
2023-04-15T09:37:51.073Z,99423.59
2023-04-15T09:40:32.358Z,99415.34
2023-04-15T09:42:59.428Z,99420.75
2023-04-15T09:45:29.396Z,99417.13
2023-04-15T09:48:21.669Z,99424.75
2023-04-15T09:50:49.128Z,99420.25
2023-04-15T09:53:22.136Z,99425.63
2023-04-15T09:55:51.106Z,99436.19
2023-04-15T09:58:18.420Z,99435.22
2023-04-15T10:00:52.905Z,99431.66
2023-04-15T10:03:21.742Z,99444.09
2023-04-15T10:05:49.657Z,99447.59
2023-04-15T10:08:24.273Z,99424.75
2023-04-15T10:10:52.035Z,99451.00
2023-04-15T10:13:21.181Z,99439.22
2023-04-15T10:15:51.855Z,99421.50
2023-04-15T10:18:21.126Z,99438.78
2023-04-15T10:20:50.715Z,99444.09
2023-04-15T10:23:19.818Z,99446.72
2023-04-15T10:25:49.510Z,99447.53
2023-04-15T10:28:20.442Z,99440.28
2023-04-15T10:30:49.365Z,99436.78
2023-04-15T10:33:24.421Z,99449.19
2023-04-15T10:35:52.987Z,99447.59
2023-04-15T10:38:35.414Z,99456.09
2023-04-15T10:41:21.235Z,99459.63
2023-04-15T10:43:56.663Z,99458.63
2023-04-15T10:46:34.179Z,99446.91
2023-04-15T10:49:07.956Z,99465.41
2023-04-15T10:51:38.355Z,99459.94
2023-04-15T10:54:08.885Z,99468.13
2023-04-15T10:56:35.888Z,99470.63
2023-04-15T10:59:05.291Z,99467.72
2023-04-15T11:02:01.037Z,99471.16
2023-04-15T11:04:52.977Z,99470.94
2023-04-15T11:07:37.059Z,99472.72
2023-04-15T11:10:52.020Z,99469.84
2023-04-15T11:13:21.224Z,99473.06
2023-04-15T11:15:50.069Z,99484.72
2023-04-15T11:18:19.558Z,99474.88
2023-04-15T11:20:48.538Z,99477.28
2023-04-15T11:23:19.488Z,99484.97
2023-04-15T11:25:50.200Z,99485.72
2023-04-15T11:28:18.989Z,99498.38
2023-04-15T11:30:47.535Z,99474.72
2023-04-15T11:33:17.809Z,99485.16
2023-04-15T11:35:49.343Z,99461.34
2023-04-15T11:38:19.270Z,99481.88
2023-04-15T11:40:50.885Z,99500.13
2023-04-15T11:43:22.691Z,99487.16
2023-04-15T11:45:51.995Z,99499.50
2023-04-15T11:48:19.439Z,99487.94
2023-04-15T11:50:54.229Z,99515.72
2023-04-15T11:53:21.046Z,99522.72
2023-04-15T11:55:53.127Z,99513.91
2023-04-15T11:58:23.857Z,99532.28
2023-04-15T12:00:55.389Z,99521.75
2023-04-15T12:03:24.585Z,99530.53
2023-04-15T12:06:11.819Z,99533.09
2023-04-15T12:09:10.426Z,99533.31
2023-04-15T12:11:41.317Z,99539.31
2023-04-15T12:14:10.366Z,99532.28
2023-04-15T12:16:48.583Z,99539.06
2023-04-15T12:19:23.890Z,99549.44
2023-04-15T12:21:50.828Z,99539.78
2023-04-15T12:24:21.370Z,99536.59
2023-04-15T12:26:51.387Z,99541.41
2023-04-15T12:29:22.116Z,99532.63
2023-04-15T12:31:53.168Z,99556.78
2023-04-15T12:34:27.366Z,99564.78
2023-04-15T12:36:54.268Z,99567.63
2023-04-15T12:39:22.754Z,99574.00
2023-04-15T12:41:50.770Z,99559.13
2023-04-15T12:44:22.235Z,99549.59
2023-04-15T12:46:49.205Z,99570.69
2023-04-15T12:49:22.464Z,99559.13
2023-04-15T12:51:50.753Z,99589.16
2023-04-15T12:54:17.887Z,99580.06
2023-04-15T12:56:44.895Z,99590.34
2023-04-15T12:59:12.748Z,99584.47
2023-04-15T13:01:39.526Z,99592.38
2023-04-15T13:04:06.391Z,99596.09
2023-04-15T13:06:33.335Z,99602.78
2023-04-15T13:08:59.909Z,99601.31
2023-04-15T13:11:26.289Z,99599.72
2023-04-15T13:13:52.728Z,99602.34
2023-04-15T13:16:20.614Z,99605.78
2023-04-15T13:18:47.183Z,99602.91
2023-04-15T13:21:13.659Z,99610.81
2023-04-15T13:23:41.158Z,99608.84
2023-04-15T13:26:07.820Z,99614.41
2023-04-15T13:28:34.269Z,99622.66
2023-04-15T13:31:00.717Z,99613.59
2023-04-15T13:33:28.637Z,99624.28
2023-04-15T13:35:55.205Z,99619.03
2023-04-15T13:38:24.260Z,99626.34
2023-04-15T13:40:50.803Z,99627.34
2023-04-15T13:43:17.443Z,99630.00
2023-04-15T13:45:44.031Z,99628.91
2023-04-15T13:48:10.539Z,99639.53
2023-04-15T13:50:40.078Z,99626.88
2023-04-15T13:53:08.082Z,99635.06
2023-04-15T13:55:34.571Z,99635.28
2023-04-15T13:58:00.991Z,99641.22
2023-04-15T14:00:28.881Z,99654.88
2023-04-15T14:02:55.342Z,99657.59
2023-04-15T14:05:21.865Z,99650.34
2023-04-15T14:07:49.556Z,99651.44
2023-04-15T14:10:16.009Z,99645.38
2023-04-15T14:12:42.377Z,99656.06
2023-04-15T14:15:09.635Z,99657.06
2023-04-15T14:17:36.284Z,99664.25
2023-04-15T14:20:03.150Z,99664.09
2023-04-15T14:22:29.598Z,99677.00
2023-04-15T14:24:57.332Z,99677.28
2023-04-15T14:27:23.749Z,99687.19
2023-04-15T14:29:50.216Z,99691.78
2023-04-15T14:34:43.246Z,99694.69
2023-04-15T14:37:09.646Z,99684.88
2023-04-15T14:39:36.024Z,99706.41
2023-04-15T14:42:03.802Z,99704.63
2023-04-15T14:46:56.706Z,99707.34
2023-04-15T14:49:23.214Z,99713.56
2023-04-15T14:51:49.756Z,99717.97
2023-04-15T14:54:17.825Z,99717.16
2023-04-15T14:56:47.264Z,99729.69
2023-04-15T14:59:15.346Z,99727.00
2023-04-15T15:01:41.894Z,99729.69
2023-04-15T15:04:10.024Z,99727.78
2023-04-15T15:06:36.703Z,99733.22
2023-04-15T15:09:03.382Z,99741.19
2023-04-15T15:11:32.506Z,99742.16
2023-04-15T15:13:58.992Z,99741.00
2023-04-15T15:16:28.209Z,99745.38
2023-04-15T15:18:55.302Z,99757.81
2023-04-15T15:21:21.731Z,99748.75
2023-04-15T15:23:48.115Z,99757.59
2023-04-15T15:26:14.674Z,99746.75
2023-04-15T15:28:41.107Z,99759.59
2023-04-15T15:31:07.664Z,99768.53
2023-04-15T15:33:35.386Z,99772.25
2023-04-15T15:36:03.092Z,99764.94
2023-04-15T15:38:29.482Z,99769.44
2023-04-15T15:40:55.902Z,99773.72
2023-04-15T15:43:22.289Z,99776.28
2023-04-15T15:45:48.839Z,99781.03
2023-04-15T15:48:15.351Z,99786.44
2023-04-15T15:50:44.955Z,99779.25
2023-04-15T15:53:11.402Z,99790.91
2023-04-15T15:55:37.877Z,99792.72
2023-04-15T15:58:04.274Z,99789.81
2023-04-15T16:00:30.732Z,99790.78
2023-04-15T16:03:06.907Z,99801.47
2023-04-15T16:05:34.359Z,99804.34
2023-04-15T16:08:02.213Z,99800.81
2023-04-15T16:10:28.644Z,99805.34
2023-04-15T16:12:55.229Z,99808.22
2023-04-15T16:15:22.346Z,99811.88
2023-04-15T16:17:48.860Z,99812.00
2023-04-15T16:20:15.447Z,99821.09
2023-04-15T16:22:42.022Z,99822.84
2023-04-15T16:25:10.202Z,99819.47
2023-04-15T16:27:54.224Z,99823.88
2023-04-15T16:30:24.611Z,99836.44
2023-04-15T16:32:51.552Z,99831.94
2023-04-15T16:35:20.905Z,99832.81
2023-04-15T16:37:47.387Z,99835.56
2023-04-15T16:40:15.360Z,99839.09
2023-04-15T16:42:41.827Z,99829.34
2023-04-15T16:45:08.931Z,99840.06
2023-04-15T16:47:35.334Z,99842.88
2023-04-15T16:50:01.745Z,99841.25
2023-04-15T16:52:28.291Z,99849.38
2023-04-15T16:54:54.689Z,99848.63
2023-04-15T16:57:22.597Z,99847.69
2023-04-15T16:59:51.599Z,99857.72
2023-04-15T17:02:18.198Z,99857.66
2023-04-15T17:04:44.778Z,99861.34
2023-04-15T17:07:11.280Z,99869.44
2023-04-15T17:09:38.791Z,99877.56
2023-04-15T17:12:05.649Z,99880.31
2023-04-15T17:14:33.777Z,99884.91
2023-04-15T17:17:00.350Z,99879.63
2023-04-15T17:19:27.139Z,99886.00
2023-04-15T17:21:55.106Z,99886.19
2023-04-15T17:24:21.871Z,99894.38
2023-04-15T17:26:48.276Z,99893.53
2023-04-15T17:29:14.691Z,99891.81
2023-04-15T17:31:42.524Z,99891.88
2023-04-15T17:34:10.739Z,99893.69
2023-04-15T17:36:38.319Z,99905.41
2023-04-15T17:39:04.808Z,99908.22
2023-04-15T17:41:31.428Z,99912.78
2023-04-15T17:43:57.907Z,99912.91
2023-04-15T17:46:24.427Z,99907.53
2023-04-15T17:48:52.269Z,99921.97
2023-04-15T17:51:18.728Z,99926.56
2023-04-15T17:53:45.226Z,99932.03
2023-04-15T17:56:11.678Z,99931.16
2023-04-15T17:58:38.218Z,99938.50
2023-04-15T18:01:04.761Z,99939.38
2023-04-15T18:03:31.281Z,99943.00
2023-04-15T18:05:59.331Z,99948.56
2023-04-15T18:08:25.895Z,99953.13
2023-04-15T18:10:52.327Z,99948.78
2023-04-15T18:13:18.859Z,99951.22
2023-04-15T18:15:48.165Z,99959.41
2023-04-15T18:18:14.647Z,99962.19
2023-04-15T18:20:41.109Z,99967.59
2023-04-15T18:23:08.925Z,99970.38
2023-04-15T18:25:35.962Z,99975.72
2023-04-15T18:28:02.391Z,99983.84
2023-04-15T18:30:28.911Z,99986.59
2023-04-15T18:32:55.446Z,99987.59
2023-04-15T18:35:21.961Z,99997.50
2023-04-15T18:37:48.462Z,99994.91
2023-04-15T18:40:17.763Z,99992.25
2023-04-15T18:42:44.489Z,99998.59
2023-04-15T18:45:12.785Z,100002.19
2023-04-15T18:47:41.652Z,100008.66
2023-04-15T18:50:08.508Z,100004.22
2023-04-15T18:52:38.051Z,100008.66
2023-04-15T18:55:05.272Z,100012.25
2023-04-15T18:57:35.762Z,100019.41
2023-04-15T19:00:06.892Z,100023.09
2023-04-15T19:02:35.856Z,100028.50
2023-04-15T19:05:02.649Z,100025.84
2023-04-15T19:11:19.726Z,100037.66
2023-04-15T19:13:47.733Z,100030.38
2023-04-15T19:16:17.837Z,100043.91
2023-04-15T19:18:44.350Z,100040.31
2023-04-15T19:21:11.429Z,100043.91
2023-04-15T19:23:38.231Z,100045.72
2023-04-15T19:26:04.883Z,100052.91
2023-04-15T19:28:33.370Z,100062.84
2023-04-15T19:31:01.326Z,100057.44
2023-04-15T19:33:27.841Z,100050.22
2023-04-15T19:35:54.293Z,100058.44
2023-04-15T19:38:20.728Z,100061.13
2023-04-15T19:40:47.189Z,100059.38
2023-04-15T19:43:13.648Z,100067.50
2023-04-15T19:45:40.100Z,100068.44
2023-04-15T19:48:07.908Z,100063.09
2023-04-15T19:50:34.373Z,100069.38
2023-04-15T19:53:00.822Z,100067.59
2023-04-15T19:55:27.263Z,100062.31
2023-04-15T19:57:53.707Z,100072.19
2023-04-15T20:00:20.513Z,100069.47
2023-04-15T20:02:47.139Z,100070.44
2023-04-15T20:05:14.969Z,100072.25
2023-04-15T20:07:44.041Z,100069.59
2023-04-15T20:10:12.197Z,100073.25
2023-04-15T20:12:50.465Z,100073.25
2023-04-15T20:15:19.664Z,100078.72
2023-04-15T20:17:46.178Z,100076.00
2023-04-15T20:20:12.792Z,100085.94
2023-04-15T20:22:40.733Z,100075.13
2023-04-15T20:25:07.820Z,100084.19
2023-04-15T20:27:34.277Z,100089.59
2023-04-15T20:30:03.914Z,100081.47
2023-04-15T20:32:30.463Z,100087.81
2023-04-15T20:34:57.026Z,100097.66
2023-04-15T20:37:23.508Z,100090.50
2023-04-15T20:39:51.392Z,100091.34
2023-04-15T20:42:34.846Z,100092.41
2023-04-15T20:45:08.650Z,100093.13
2023-04-15T20:47:53.485Z,100094.19
2023-04-15T20:50:26.444Z,100092.31
2023-04-15T20:53:00.369Z,100094.19
2023-04-15T20:55:32.506Z,100102.16
2023-04-15T20:58:03.268Z,100087.81
2023-04-15T21:00:32.323Z,100108.41
2023-04-15T21:02:59.096Z,100100.41
2023-04-15T21:05:27.787Z,100103.06
2023-04-15T21:07:54.319Z,100104.84
2023-04-15T21:10:21.381Z,100112.00
2023-04-15T21:12:49.274Z,100111.13
2023-04-15T21:15:21.990Z,100116.53
2023-04-15T21:17:51.600Z,100120.13
2023-04-15T21:20:20.169Z,100125.59
2023-04-15T21:22:48.825Z,100113.88
2023-04-15T21:25:21.612Z,100123.78
2023-04-15T21:27:49.968Z,100132.75
2023-04-15T21:30:22.718Z,100130.94
2023-04-15T21:32:50.595Z,100133.66
2023-04-15T21:35:19.487Z,100130.13
2023-04-15T21:37:47.064Z,100137.31
2023-04-15T21:40:37.087Z,100136.50
2023-04-15T21:43:05.000Z,100147.25
2023-04-15T21:45:34.023Z,100145.47
2023-04-15T21:48:08.044Z,100148.22
2023-04-15T21:50:35.991Z,100153.69
2023-04-15T21:53:02.977Z,100150.09
2023-04-15T21:55:29.683Z,100161.81
2023-04-15T21:57:56.350Z,100158.16
2023-04-15T22:00:24.288Z,100163.56
2023-04-15T22:02:51.029Z,100160.00
2023-04-15T22:05:17.994Z,100161.81
2023-04-15T22:07:45.997Z,100171.75
2023-04-15T22:10:18.026Z,100169.09
2023-04-15T22:12:50.593Z,100171.81
2023-04-15T22:15:18.923Z,100172.72
2023-04-15T22:17:49.121Z,100180.69
2023-04-15T22:20:15.766Z,100178.97
2023-04-15T22:22:44.200Z,100182.69
2023-04-15T22:25:11.156Z,100186.38
2023-04-15T22:27:37.656Z,100187.34
2023-04-15T22:30:05.079Z,100190.06
2023-04-15T22:32:31.583Z,100188.31
2023-04-15T22:34:59.447Z,100195.59
2023-04-15T22:37:25.932Z,100194.66
2023-04-15T22:39:52.395Z,100199.19
2023-04-15T22:42:18.825Z,100201.06
2023-04-15T22:44:45.308Z,100207.41
2023-04-15T22:47:11.747Z,100208.28
2023-04-15T22:49:38.159Z,100214.59
2023-04-15T22:52:06.069Z,100217.31
2023-04-15T22:54:32.699Z,100218.22
2023-04-15T22:56:59.169Z,100214.69
2023-04-15T22:59:25.608Z,100216.47
2023-04-15T23:01:52.075Z,100226.31
2023-04-15T23:04:23.409Z,100227.28
2023-04-15T23:06:54.283Z,100224.59
2023-04-15T23:09:22.113Z,100229.09
2023-04-15T23:11:48.639Z,100234.56
2023-04-15T23:14:16.370Z,100224.66
2023-04-15T23:16:44.012Z,100221.97
2023-04-15T23:19:17.941Z,100229.22
2023-04-15T23:21:44.412Z,100223.81
2023-04-15T23:24:11.669Z,100229.22
2023-04-15T23:26:39.589Z,100230.19
2023-04-15T23:29:07.169Z,100229.34
2023-04-15T23:31:33.946Z,100235.69
2023-04-15T23:34:00.482Z,100234.75
2023-04-15T23:36:26.963Z,100234.84
2023-04-15T23:38:53.396Z,100234.84
2023-04-15T23:41:22.234Z,100242.13
2023-04-15T23:43:50.181Z,100232.19
2023-04-15T23:46:18.736Z,100243.00
2023-04-15T23:48:45.290Z,100242.13
2023-04-15T23:51:11.753Z,100249.31
2023-04-15T23:53:38.197Z,100241.28
2023-04-15T23:56:05.497Z,100238.66
2023-04-15T23:58:33.998Z,100242.25
